PHKO METAR and TAF weather

Enter ICAO airport designator
Station Type Date Time Source
PHKO METAR 2020/01/21 17:53 UTC NOAA

PHKO 211753Z 11003KT 10SM SCT060 22/17 A3009 RMK AO2 SLP187 T02220172 10222 20206 51011


Station Type Date Time Source
PHKO Decoded METAR 2020/01/21 17:53 UTC NOAA

KONA INTERNATIONAL AIRPORT, HI, United States (PHKO) 19-44N 156-03W 27M
Jan 21, 2020 - 12:53 PM EST / 2020.01.21 1753 UTC
Wind: from the ESE (110 degrees) at 3 MPH (3 KT):0
Visibility: 10 mile(s):0
Sky conditions: partly cloudy
Temperature: 72.0 F (22.2 C)
Dew Point: 63.0 F (17.2 C)
Relative Humidity: 73%
Pressure (altimeter): 30.09 in. Hg (1018 hPa)
Pressure tendency: 0.03 inches (1.1 hPa) higher than three hours ago
ob: PHKO 211753Z 11003KT 10SM SCT060 22/17 A3009 RMK AO2 SLP187 T02220172 10222 20206 51011
cycle: 18

Station Type Date Time Source
PHKO TAF 2020/01/21 18:24 UTC NOAA

TAF PHKO 211723Z 2118/2218 04006KT P6SM SCT045 BKN060
FM212000 22008KT P6SM FEW050
FM220600 10005KT P6SM FEW030 FEW060

Example: see airport list